createdAt,value
2023-03-16T00:00:35.676Z,0.00
2023-03-16T00:01:35.679Z,0.00
2023-03-16T00:02:36.582Z,0.00
2023-03-16T00:03:35.671Z,0.00
2023-03-16T00:04:35.602Z,0.00
2023-03-16T00:05:35.596Z,0.00
2023-03-16T00:06:35.601Z,0.00
2023-03-16T00:07:35.564Z,0.00
2023-03-16T00:08:35.559Z,0.00
2023-03-16T00:09:35.540Z,0.00
2023-03-16T00:10:35.523Z,0.00
2023-03-16T00:11:35.528Z,0.00
2023-03-16T00:12:36.564Z,0.00
2023-03-16T00:13:35.493Z,0.00
2023-03-16T00:14:35.477Z,0.00
2023-03-16T00:15:35.490Z,0.00
2023-03-16T00:16:35.473Z,0.00
2023-03-16T00:17:35.440Z,0.00
2023-03-16T00:18:35.458Z,0.00
2023-03-16T00:19:35.409Z,0.00
2023-03-16T00:20:35.399Z,0.00
2023-03-16T00:21:35.397Z,0.00
2023-03-16T00:22:35.402Z,0.00
2023-03-16T00:23:35.360Z,0.00
2023-03-16T00:24:35.379Z,0.00
2023-03-16T00:25:35.342Z,0.00
2023-03-16T00:26:35.317Z,0.00
2023-03-16T00:27:35.313Z,0.00
2023-03-16T00:28:35.292Z,0.00
2023-03-16T00:29:35.286Z,0.00
2023-03-16T00:30:35.303Z,0.00
2023-03-16T00:31:35.287Z,0.00
2023-03-16T00:32:35.299Z,0.00
2023-03-16T00:33:35.237Z,0.00
2023-03-16T00:34:35.216Z,0.00
2023-03-16T00:35:35.233Z,0.00
2023-03-16T00:36:35.212Z,0.00
2023-03-16T00:37:35.212Z,0.00
2023-03-16T00:38:36.110Z,0.00
2023-03-16T00:39:35.156Z,0.00
2023-03-16T00:40:35.131Z,0.00
2023-03-16T00:41:35.132Z,0.00
2023-03-16T00:42:35.155Z,0.00
2023-03-16T00:43:35.102Z,0.00
2023-03-16T00:44:35.078Z,0.00
2023-03-16T00:45:35.108Z,0.00
2023-03-16T00:46:35.063Z,0.00
2023-03-16T00:47:35.048Z,0.00
2023-03-16T00:48:35.056Z,0.00
2023-03-16T00:49:35.080Z,0.00
2023-03-16T00:50:35.003Z,0.00
2023-03-16T00:51:34.992Z,0.00
2023-03-16T00:52:34.980Z,0.00
2023-03-16T00:53:34.973Z,0.00
2023-03-16T00:54:35.000Z,0.00
2023-03-16T00:55:34.940Z,0.00
2023-03-16T00:56:34.929Z,0.00
2023-03-16T00:57:34.935Z,0.00
2023-03-16T00:58:34.897Z,0.00
2023-03-16T00:59:34.896Z,0.00
2023-03-16T01:00:34.896Z,0.00
2023-03-16T01:01:34.886Z,0.00
2023-03-16T01:02:34.849Z,0.00
2023-03-16T01:03:34.898Z,0.00
2023-03-16T01:04:34.827Z,0.00
2023-03-16T01:05:34.808Z,0.00
2023-03-16T01:06:34.830Z,0.00
2023-03-16T01:07:34.789Z,0.00
2023-03-16T01:08:34.771Z,0.00
2023-03-16T01:09:34.752Z,0.00
2023-03-16T01:10:34.741Z,0.00
2023-03-16T01:11:34.732Z,0.00
2023-03-16T01:12:34.751Z,0.00
2023-03-16T01:13:34.719Z,0.00
2023-03-16T01:14:34.711Z,0.00
2023-03-16T01:15:34.693Z,0.00
2023-03-16T01:16:34.702Z,0.00
2023-03-16T01:17:34.668Z,0.00
2023-03-16T01:18:34.688Z,0.00
2023-03-16T01:19:34.626Z,0.00
2023-03-16T01:20:34.616Z,0.00
2023-03-16T01:21:34.607Z,0.00
2023-03-16T01:22:34.598Z,0.00
2023-03-16T01:23:34.579Z,0.00
2023-03-16T01:24:34.609Z,0.00
2023-03-16T01:25:35.511Z,0.00
2023-03-16T01:26:34.529Z,0.00
2023-03-16T01:27:34.527Z,0.00
2023-03-16T01:28:34.516Z,0.00
2023-03-16T01:29:34.502Z,0.00
2023-03-16T01:30:34.548Z,0.00
2023-03-16T01:31:34.472Z,0.00
2023-03-16T01:32:34.480Z,0.00
2023-03-16T01:33:34.443Z,0.00
2023-03-16T01:34:34.434Z,0.00
2023-03-16T01:35:34.474Z,0.00
2023-03-16T01:36:34.504Z,0.00
2023-03-16T01:37:35.355Z,0.00
2023-03-16T01:38:34.388Z,0.00
2023-03-16T01:39:34.376Z,0.00
2023-03-16T01:40:34.351Z,0.00
2023-03-16T01:41:34.348Z,0.00
2023-03-16T01:42:34.437Z,0.00
2023-03-16T01:43:34.322Z,0.00
2023-03-16T01:44:34.307Z,0.00
2023-03-16T01:45:35.278Z,0.00
2023-03-16T01:46:34.291Z,0.00
2023-03-16T01:47:34.281Z,0.00
2023-03-16T01:48:34.269Z,0.00
2023-03-16T01:49:34.261Z,0.00
2023-03-16T01:50:34.220Z,0.00
2023-03-16T01:51:34.225Z,0.00
2023-03-16T01:52:34.199Z,0.00
2023-03-16T01:53:34.193Z,0.00
2023-03-16T01:54:34.291Z,0.00
2023-03-16T01:55:34.164Z,0.00
2023-03-16T01:56:34.141Z,0.00
2023-03-16T01:57:34.133Z,0.00
2023-03-16T01:58:34.123Z,0.00
2023-03-16T01:59:34.114Z,0.00
2023-03-16T02:00:34.126Z,0.00
2023-03-16T02:01:34.139Z,0.00
2023-03-16T02:02:34.076Z,0.00
2023-03-16T02:03:34.056Z,0.00
2023-03-16T02:04:34.102Z,0.00
2023-03-16T02:05:34.027Z,0.00
2023-03-16T02:06:35.084Z,0.00
2023-03-16T02:07:33.998Z,0.00
2023-03-16T02:08:33.994Z,0.00
2023-03-16T02:09:33.985Z,0.00
2023-03-16T02:10:33.971Z,0.00
2023-03-16T02:11:34.912Z,0.00
2023-03-16T02:12:34.930Z,0.00
2023-03-16T02:13:33.941Z,0.00
2023-03-16T02:14:33.922Z,0.00
2023-03-16T02:15:33.932Z,0.00
2023-03-16T02:16:33.891Z,0.00
2023-03-16T02:17:33.887Z,0.00
2023-03-16T02:18:33.903Z,0.00
2023-03-16T02:19:33.883Z,0.00
2023-03-16T02:20:33.845Z,0.00
2023-03-16T02:21:33.832Z,0.00
2023-03-16T02:22:33.814Z,0.00
2023-03-16T02:23:33.794Z,0.00
2023-03-16T02:24:33.911Z,0.00
2023-03-16T02:25:33.776Z,0.00
2023-03-16T02:26:33.767Z,0.00
2023-03-16T02:27:33.747Z,0.00
2023-03-16T02:28:33.739Z,0.00
2023-03-16T02:29:33.718Z,0.00
2023-03-16T02:30:33.747Z,0.00
2023-03-16T02:31:33.737Z,0.00
2023-03-16T02:32:33.719Z,0.00
2023-03-16T02:33:33.677Z,0.00
2023-03-16T02:34:33.662Z,0.00
2023-03-16T02:35:33.674Z,0.00
2023-03-16T02:36:33.673Z,0.00
2023-03-16T02:37:33.622Z,0.00
2023-03-16T02:38:33.628Z,0.00
2023-03-16T02:39:33.592Z,0.00
2023-03-16T02:40:33.581Z,0.00
2023-03-16T02:41:33.562Z,0.00
2023-03-16T02:42:33.580Z,0.00
2023-03-16T02:43:33.553Z,0.00
2023-03-16T02:44:34.494Z,0.00
2023-03-16T02:45:33.527Z,0.00
2023-03-16T02:46:34.511Z,0.00
2023-03-16T02:47:33.487Z,0.00
2023-03-16T02:48:33.546Z,0.00
2023-03-16T02:49:33.457Z,0.00
2023-03-16T02:50:33.456Z,0.00
2023-03-16T02:51:33.442Z,0.00
2023-03-16T02:52:33.429Z,0.00
2023-03-16T02:53:33.425Z,0.00
2023-03-16T02:54:33.446Z,0.00
2023-03-16T02:55:33.379Z,0.00
2023-03-16T02:56:33.370Z,0.00
2023-03-16T02:57:33.389Z,0.00
2023-03-16T02:58:33.350Z,0.00
2023-03-16T02:59:33.335Z,0.00
2023-03-16T03:00:33.378Z,0.00
2023-03-16T03:01:33.308Z,0.00
2023-03-16T03:02:33.298Z,0.00
2023-03-16T03:03:33.326Z,0.00
2023-03-16T03:04:33.258Z,0.00
2023-03-16T03:05:33.257Z,0.00
2023-03-16T03:06:33.281Z,0.00
2023-03-16T03:07:34.183Z,0.00
2023-03-16T03:08:33.223Z,0.00
2023-03-16T03:09:33.209Z,0.00
2023-03-16T03:10:33.204Z,0.00
2023-03-16T03:11:33.186Z,0.00
2023-03-16T03:12:33.290Z,0.00
2023-03-16T03:13:33.150Z,0.00
2023-03-16T03:14:33.142Z,0.00
2023-03-16T03:15:33.117Z,0.00
2023-03-16T03:16:33.292Z,0.00
2023-03-16T03:17:33.096Z,0.00
2023-03-16T03:18:33.204Z,0.00
2023-03-16T03:19:33.068Z,0.00
2023-03-16T03:20:33.068Z,0.00
2023-03-16T03:21:33.064Z,0.00
2023-03-16T03:22:33.062Z,0.00
2023-03-16T03:23:33.970Z,0.00
2023-03-16T03:24:33.108Z,0.00
2023-03-16T03:25:32.991Z,0.00
2023-03-16T03:26:32.996Z,0.00
2023-03-16T03:27:32.995Z,0.00
2023-03-16T03:28:32.961Z,0.00
2023-03-16T03:29:32.944Z,0.00
2023-03-16T03:30:32.955Z,0.00
2023-03-16T03:31:32.967Z,0.00
2023-03-16T03:32:32.941Z,0.00
2023-03-16T03:33:32.895Z,0.00
2023-03-16T03:34:33.845Z,0.00
2023-03-16T03:35:32.941Z,0.00
2023-03-16T03:36:33.845Z,0.00
2023-03-16T03:37:32.837Z,0.00
2023-03-16T03:38:32.834Z,0.00
2023-03-16T03:39:32.823Z,0.00
2023-03-16T03:40:32.807Z,0.00
2023-03-16T03:41:33.737Z,0.00
2023-03-16T03:42:32.899Z,0.00
2023-03-16T03:43:32.768Z,0.00
2023-03-16T03:44:32.769Z,0.00
2023-03-16T03:45:32.747Z,0.00
2023-03-16T03:46:32.873Z,0.00
2023-03-16T03:47:32.726Z,0.00
2023-03-16T03:48:32.813Z,0.00
2023-03-16T03:49:32.684Z,0.00
2023-03-16T03:50:32.691Z,0.00
2023-03-16T03:51:32.668Z,0.00
2023-03-16T03:52:32.651Z,0.00
2023-03-16T03:53:32.633Z,0.00
2023-03-16T03:54:32.733Z,0.00
2023-03-16T03:55:32.604Z,0.00
2023-03-16T03:56:32.603Z,0.00
2023-03-16T03:57:32.574Z,0.00
2023-03-16T03:58:32.576Z,0.00
2023-03-16T03:59:32.564Z,0.00
2023-03-16T04:00:32.584Z,0.00
2023-03-16T04:01:32.542Z,0.00
2023-03-16T04:02:32.701Z,0.00
2023-03-16T04:03:32.569Z,0.00
2023-03-16T04:04:32.497Z,0.00
2023-03-16T04:05:32.486Z,0.00
2023-03-16T04:06:32.525Z,0.00
2023-03-16T04:07:32.457Z,0.00
2023-03-16T04:08:32.448Z,0.00
2023-03-16T04:09:32.417Z,0.00
2023-03-16T04:10:32.440Z,0.00
2023-03-16T04:11:32.399Z,0.00
2023-03-16T04:12:32.438Z,0.00
2023-03-16T04:13:32.379Z,0.00
2023-03-16T04:14:33.328Z,0.00
2023-03-16T04:15:32.352Z,0.00
2023-03-16T04:16:32.395Z,0.00
2023-03-16T04:17:32.323Z,0.00
2023-03-16T04:18:32.358Z,0.00
2023-03-16T04:19:32.306Z,0.00
2023-03-16T04:20:32.285Z,0.00
2023-03-16T04:21:32.282Z,0.00
2023-03-16T04:22:32.257Z,0.00
2023-03-16T04:23:32.277Z,0.00
2023-03-16T04:24:32.265Z,0.00
2023-03-16T04:25:32.214Z,0.00
2023-03-16T04:26:32.212Z,0.00
2023-03-16T04:27:32.185Z,0.00
2023-03-16T04:28:32.187Z,0.00
2023-03-16T04:29:32.164Z,0.00
2023-03-16T04:30:32.220Z,0.00
2023-03-16T04:31:32.147Z,0.00
2023-03-16T04:32:32.172Z,0.00
2023-03-16T04:33:32.187Z,0.00
2023-03-16T04:34:33.064Z,0.00
2023-03-16T04:35:32.200Z,0.00
2023-03-16T04:36:32.202Z,0.00
2023-03-16T04:37:32.074Z,0.00
2023-03-16T04:38:32.124Z,0.00
2023-03-16T04:39:32.036Z,0.00
2023-03-16T04:40:32.044Z,0.00
2023-03-16T04:41:32.015Z,0.00
2023-03-16T04:42:32.052Z,0.00
2023-03-16T04:43:31.985Z,0.00
2023-03-16T04:44:31.981Z,0.00
2023-03-16T04:45:31.954Z,0.00
2023-03-16T04:46:32.059Z,0.00
2023-03-16T04:47:31.936Z,0.00
2023-03-16T04:48:31.959Z,0.00
2023-03-16T04:49:31.946Z,0.00
2023-03-16T04:50:31.897Z,0.00
2023-03-16T04:51:32.836Z,0.00
2023-03-16T04:52:31.878Z,0.00
2023-03-16T04:53:31.918Z,0.00
2023-03-16T04:54:31.869Z,0.00
2023-03-16T04:55:31.839Z,0.00
2023-03-16T04:56:31.834Z,0.00
2023-03-16T04:57:31.801Z,0.00
2023-03-16T04:58:31.811Z,0.00
2023-03-16T04:59:31.833Z,0.00
2023-03-16T05:00:31.891Z,0.00
2023-03-16T05:01:31.818Z,0.00
2023-03-16T05:02:31.743Z,0.00
2023-03-16T05:03:31.734Z,0.00
2023-03-16T05:04:31.735Z,0.00
2023-03-16T05:05:31.757Z,0.00
2023-03-16T05:06:31.719Z,0.00
2023-03-16T05:07:31.681Z,0.00
2023-03-16T05:08:31.664Z,0.00
2023-03-16T05:09:31.645Z,0.00
2023-03-16T05:10:31.644Z,0.00
2023-03-16T05:11:31.626Z,0.00
2023-03-16T05:12:31.737Z,0.00
2023-03-16T05:13:31.597Z,0.00
2023-03-16T05:14:31.588Z,0.00
2023-03-16T05:15:31.565Z,0.00
2023-03-16T05:16:31.564Z,0.00
2023-03-16T05:17:31.552Z,0.00
2023-03-16T05:18:31.557Z,0.00
2023-03-16T05:19:31.526Z,0.00
2023-03-16T05:20:31.513Z,0.00
2023-03-16T05:21:31.498Z,0.00
2023-03-16T05:22:31.495Z,0.00
2023-03-16T05:23:31.477Z,0.00
2023-03-16T05:24:31.497Z,0.00
2023-03-16T05:25:31.441Z,0.00
2023-03-16T05:26:31.473Z,0.00
2023-03-16T05:27:31.432Z,0.00
2023-03-16T05:28:31.425Z,0.00
2023-03-16T05:29:31.395Z,0.00
2023-03-16T05:30:31.460Z,0.00
2023-03-16T05:31:31.361Z,0.00
2023-03-16T05:32:31.376Z,0.00
2023-03-16T05:33:31.349Z,0.00
2023-03-16T05:34:31.325Z,0.00
2023-03-16T05:35:31.343Z,0.00
2023-03-16T05:36:31.369Z,0.00
2023-03-16T05:37:31.303Z,0.00
2023-03-16T05:38:31.282Z,0.00
2023-03-16T05:39:31.258Z,0.00
2023-03-16T05:40:31.250Z,0.00
2023-03-16T05:41:31.240Z,0.00
2023-03-16T05:42:31.288Z,0.00
2023-03-16T05:43:31.221Z,0.00
2023-03-16T05:44:31.200Z,0.00
2023-03-16T05:45:31.187Z,0.00
2023-03-16T05:46:31.250Z,0.00
2023-03-16T05:47:31.167Z,0.00
2023-03-16T05:48:31.224Z,0.00
2023-03-16T05:49:32.084Z,0.00
2023-03-16T05:50:31.143Z,0.00
2023-03-16T05:51:31.120Z,0.00
2023-03-16T05:52:31.108Z,0.00
2023-03-16T05:53:31.105Z,0.00
2023-03-16T05:54:31.127Z,0.00
2023-03-16T05:55:31.057Z,0.00
2023-03-16T05:56:31.052Z,0.00
2023-03-16T05:57:31.989Z,0.00
2023-03-16T05:58:31.033Z,0.00
2023-03-16T05:59:31.001Z,0.00
2023-03-16T06:00:31.066Z,0.00
2023-03-16T06:01:30.990Z,0.00
2023-03-16T06:02:30.988Z,0.00
2023-03-16T06:03:30.951Z,0.00
2023-03-16T06:04:30.966Z,0.00
2023-03-16T06:05:30.922Z,0.00
2023-03-16T06:06:30.952Z,0.00
2023-03-16T06:07:30.902Z,0.00
2023-03-16T06:08:30.902Z,5.62
2023-03-16T06:09:30.873Z,5.62
2023-03-16T06:10:30.875Z,5.62
2023-03-16T06:11:30.854Z,5.62
2023-03-16T06:12:30.874Z,5.62
2023-03-16T06:13:30.835Z,5.62
2023-03-16T06:14:30.827Z,5.62
2023-03-16T06:15:30.829Z,5.62
2023-03-16T06:16:30.872Z,5.62
2023-03-16T06:17:30.794Z,5.62
2023-03-16T06:18:30.803Z,5.62
2023-03-16T06:19:31.109Z,5.62
2023-03-16T06:20:30.784Z,5.62
2023-03-16T06:21:31.724Z,5.62
2023-03-16T06:22:31.659Z,5.62
2023-03-16T06:23:30.699Z,5.62
2023-03-16T06:24:30.749Z,5.62
2023-03-16T06:25:30.671Z,5.62
2023-03-16T06:26:30.661Z,5.62
2023-03-16T06:27:30.659Z,5.62
2023-03-16T06:28:30.632Z,5.62
2023-03-16T06:29:30.621Z,5.62
2023-03-16T06:30:30.794Z,5.62
2023-03-16T06:31:30.689Z,5.62
2023-03-16T06:32:30.620Z,5.62
2023-03-16T06:33:30.578Z,5.62
2023-03-16T06:34:31.521Z,5.62
2023-03-16T06:35:30.544Z,5.62
2023-03-16T06:36:31.596Z,5.62
2023-03-16T06:37:30.526Z,5.62
2023-03-16T06:38:31.461Z,5.62
2023-03-16T06:39:30.488Z,5.62
2023-03-16T06:40:30.927Z,5.62
2023-03-16T06:41:30.468Z,5.62
2023-03-16T06:42:30.502Z,5.62
2023-03-16T06:43:30.440Z,5.62
2023-03-16T06:44:30.431Z,5.62
2023-03-16T06:45:30.479Z,5.62
2023-03-16T06:46:30.405Z,5.62
2023-03-16T06:47:30.400Z,11.25
2023-03-16T06:48:30.433Z,11.25
2023-03-16T06:49:30.375Z,5.62
2023-03-16T06:50:30.468Z,5.62
2023-03-16T06:51:30.340Z,5.62
2023-03-16T06:52:30.322Z,5.62
2023-03-16T06:53:30.323Z,5.62
2023-03-16T06:54:30.322Z,5.62
2023-03-16T06:55:30.292Z,5.62
2023-03-16T06:56:31.227Z,5.62
2023-03-16T06:57:30.256Z,5.62
2023-03-16T06:58:31.202Z,5.62
2023-03-16T06:59:30.243Z,5.62
2023-03-16T07:00:30.512Z,5.62
2023-03-16T07:01:30.287Z,5.62
2023-03-16T07:02:31.158Z,11.25
2023-03-16T07:03:31.137Z,11.25
2023-03-16T07:04:30.224Z,50.62
2023-03-16T07:05:30.179Z,50.62
2023-03-16T07:06:30.265Z,50.62
2023-03-16T07:07:30.138Z,56.25
2023-03-16T07:08:30.132Z,56.25
2023-03-16T07:09:30.372Z,56.25
2023-03-16T07:10:30.534Z,61.88
2023-03-16T07:11:31.041Z,61.88
2023-03-16T07:12:30.174Z,67.50
2023-03-16T07:13:30.842Z,67.50
2023-03-16T07:14:30.046Z,73.12
2023-03-16T07:15:30.032Z,78.75
2023-03-16T07:16:30.051Z,84.38
2023-03-16T07:17:30.006Z,84.38
2023-03-16T07:18:29.998Z,90.00
2023-03-16T07:19:29.974Z,95.62
2023-03-16T07:20:30.517Z,95.62
2023-03-16T07:21:29.954Z,101.25
2023-03-16T07:22:29.944Z,101.25
2023-03-16T07:23:30.649Z,101.25
2023-03-16T07:24:29.938Z,101.25
2023-03-16T07:25:29.934Z,101.25
2023-03-16T07:26:29.898Z,101.25
2023-03-16T07:27:29.885Z,101.25
2023-03-16T07:28:29.888Z,106.88
2023-03-16T07:29:29.850Z,112.50
2023-03-16T07:30:30.373Z,112.50
2023-03-16T07:31:29.970Z,112.50
2023-03-16T07:32:29.818Z,112.50
2023-03-16T07:33:29.788Z,112.50
2023-03-16T07:34:29.817Z,112.50
2023-03-16T07:35:30.050Z,106.88
2023-03-16T07:36:29.867Z,106.88
2023-03-16T07:37:29.736Z,101.25
2023-03-16T07:38:29.716Z,101.25
2023-03-16T07:39:29.714Z,95.62
2023-03-16T07:40:30.082Z,95.62
2023-03-16T07:41:32.267Z,90.00
2023-03-16T07:42:29.699Z,90.00
2023-03-16T07:43:29.670Z,90.00
2023-03-16T07:44:29.649Z,84.38
2023-03-16T07:45:29.928Z,84.38
2023-03-16T07:46:29.722Z,78.75
2023-03-16T07:47:30.565Z,78.75
2023-03-16T07:48:29.623Z,78.75
2023-03-16T07:49:29.581Z,73.12
2023-03-16T07:50:30.009Z,73.12
2023-03-16T07:51:29.552Z,67.50
2023-03-16T07:52:29.535Z,67.50
2023-03-16T07:53:29.534Z,61.88
2023-03-16T07:54:29.624Z,61.88
2023-03-16T07:55:29.511Z,56.25
2023-03-16T07:56:36.160Z,56.25
2023-03-16T07:57:30.486Z,56.25
2023-03-16T07:58:29.464Z,61.88
2023-03-16T07:59:29.453Z,61.88
2023-03-16T08:00:29.819Z,67.50
2023-03-16T08:01:29.435Z,67.50
2023-03-16T08:02:29.510Z,67.50
2023-03-16T08:03:29.423Z,67.50
2023-03-16T08:04:29.390Z,67.50
2023-03-16T08:05:29.376Z,67.50
2023-03-16T08:06:29.401Z,67.50
2023-03-16T08:07:29.348Z,67.50
2023-03-16T08:08:29.350Z,67.50
2023-03-16T08:09:29.319Z,73.12
2023-03-16T08:10:29.596Z,78.75
2023-03-16T08:11:29.295Z,78.75
2023-03-16T08:12:29.387Z,84.38
2023-03-16T08:13:29.274Z,84.38
2023-03-16T08:14:29.254Z,84.38
2023-03-16T08:15:29.253Z,90.00
2023-03-16T08:16:29.289Z,90.00
2023-03-16T08:17:29.217Z,90.00
2023-03-16T08:18:29.236Z,95.62
2023-03-16T08:19:29.204Z,101.25
2023-03-16T08:20:29.432Z,106.88
2023-03-16T08:21:30.032Z,112.50
2023-03-16T08:22:29.154Z,118.12
2023-03-16T08:23:29.148Z,118.12
2023-03-16T08:24:29.239Z,123.75
2023-03-16T08:25:29.124Z,118.12
2023-03-16T08:26:29.102Z,112.50
2023-03-16T08:27:30.061Z,112.50
2023-03-16T08:28:29.069Z,112.50
2023-03-16T08:29:29.065Z,118.12
2023-03-16T08:30:29.395Z,123.75
2023-03-16T08:31:29.133Z,123.75
2023-03-16T08:32:29.042Z,123.75
2023-03-16T08:33:29.019Z,129.38
2023-03-16T08:34:29.010Z,135.00
2023-03-16T08:35:29.001Z,135.00
2023-03-16T08:36:29.085Z,140.62
2023-03-16T08:37:28.981Z,140.62
2023-03-16T08:38:28.947Z,146.25
2023-03-16T08:39:28.938Z,146.25
2023-03-16T08:40:29.277Z,146.25
2023-03-16T08:41:28.910Z,146.25
2023-03-16T08:42:28.990Z,151.88
2023-03-16T08:43:28.898Z,157.50
2023-03-16T08:44:28.870Z,163.12
2023-03-16T08:45:28.860Z,163.12
2023-03-16T08:46:28.861Z,174.38
2023-03-16T08:47:28.832Z,180.00
2023-03-16T08:48:28.852Z,191.25
2023-03-16T08:49:28.835Z,202.50
2023-03-16T08:50:29.068Z,202.50
2023-03-16T08:51:28.783Z,202.50
2023-03-16T08:52:28.763Z,202.50
2023-03-16T08:53:28.753Z,202.50
2023-03-16T08:54:28.772Z,180.00
2023-03-16T08:55:28.722Z,174.38
2023-03-16T08:56:28.714Z,168.75
2023-03-16T08:57:29.660Z,163.12
2023-03-16T08:58:28.721Z,157.50
2023-03-16T08:59:30.486Z,151.88
2023-03-16T09:00:29.233Z,146.25
2023-03-16T09:01:28.675Z,140.62
2023-03-16T09:02:28.641Z,140.62
2023-03-16T09:03:28.630Z,146.25
2023-03-16T09:04:28.755Z,146.25
2023-03-16T09:05:28.657Z,151.88
2023-03-16T09:06:28.604Z,151.88
2023-03-16T09:07:28.573Z,151.88
2023-03-16T09:08:28.556Z,157.50
2023-03-16T09:09:28.565Z,163.12
2023-03-16T09:10:29.417Z,163.12
2023-03-16T09:11:29.273Z,163.12
2023-03-16T09:12:28.539Z,163.12
2023-03-16T09:13:28.521Z,163.12
2023-03-16T09:14:28.496Z,163.12
2023-03-16T09:15:28.480Z,157.50
2023-03-16T09:16:28.509Z,157.50
2023-03-16T09:17:28.452Z,151.88
2023-03-16T09:18:28.473Z,151.88
2023-03-16T09:19:34.875Z,146.25
2023-03-16T09:20:33.274Z,146.25
2023-03-16T09:21:28.404Z,146.25
2023-03-16T09:22:28.371Z,151.88
2023-03-16T09:23:28.361Z,151.88
2023-03-16T09:24:28.463Z,151.88
2023-03-16T09:25:28.597Z,151.88
2023-03-16T09:26:28.332Z,151.88
2023-03-16T09:27:28.324Z,157.50
2023-03-16T09:28:28.301Z,157.50
2023-03-16T09:29:28.323Z,163.12
2023-03-16T09:30:28.725Z,168.75
2023-03-16T09:31:28.287Z,174.38
2023-03-16T09:32:28.287Z,174.38
2023-03-16T09:33:28.227Z,174.38
2023-03-16T09:34:28.645Z,168.75
2023-03-16T09:35:28.507Z,168.75
2023-03-16T09:36:28.313Z,163.12
2023-03-16T09:37:35.334Z,163.12
2023-03-16T09:38:29.170Z,157.50
2023-03-16T09:39:28.160Z,151.88
2023-03-16T09:40:28.175Z,151.88
2023-03-16T09:41:28.143Z,146.25
2023-03-16T09:42:28.982Z,140.62
2023-03-16T09:43:28.123Z,135.00
2023-03-16T09:44:28.093Z,129.38
2023-03-16T09:45:28.390Z,123.75
2023-03-16T09:46:28.075Z,118.12
2023-03-16T09:47:28.064Z,118.12
2023-03-16T09:48:28.075Z,118.12
2023-03-16T09:49:28.034Z,123.75
2023-03-16T09:50:32.421Z,123.75
2023-03-16T09:51:29.457Z,129.38
2023-03-16T09:52:28.009Z,129.38
2023-03-16T09:53:27.987Z,135.00
2023-03-16T09:54:27.998Z,140.62
2023-03-16T09:55:28.294Z,140.62
2023-03-16T09:56:27.939Z,140.62
2023-03-16T09:57:27.946Z,135.00
2023-03-16T09:58:27.930Z,129.38
2023-03-16T09:59:27.910Z,129.38
2023-03-16T10:00:28.318Z,129.38
2023-03-16T10:01:27.929Z,129.38
2023-03-16T10:02:27.864Z,129.38
2023-03-16T10:03:27.854Z,129.38
2023-03-16T10:04:27.870Z,129.38
2023-03-16T10:05:27.826Z,129.38
2023-03-16T10:06:27.844Z,129.38
2023-03-16T10:07:27.799Z,129.38
2023-03-16T10:08:28.006Z,129.38
2023-03-16T10:09:27.780Z,129.38
2023-03-16T10:10:28.307Z,129.38
2023-03-16T10:11:27.753Z,123.75
2023-03-16T10:12:27.765Z,123.75
2023-03-16T10:13:27.727Z,123.75
2023-03-16T10:14:27.711Z,123.75
2023-03-16T10:15:27.698Z,123.75
2023-03-16T10:16:27.737Z,123.75
2023-03-16T10:17:27.687Z,123.75
2023-03-16T10:18:27.849Z,123.75
2023-03-16T10:19:27.646Z,118.12
2023-03-16T10:20:27.903Z,118.12
2023-03-16T10:21:27.613Z,118.12
2023-03-16T10:22:27.683Z,112.50
2023-03-16T10:23:27.593Z,118.12
2023-03-16T10:24:27.797Z,118.12
2023-03-16T10:25:27.562Z,118.12
2023-03-16T10:26:27.551Z,112.50
2023-03-16T10:27:27.538Z,118.12
2023-03-16T10:28:27.535Z,118.12
2023-03-16T10:29:27.530Z,118.12
2023-03-16T10:30:27.757Z,118.12
2023-03-16T10:31:27.548Z,106.88
2023-03-16T10:32:28.230Z,101.25
2023-03-16T10:33:27.466Z,101.25
2023-03-16T10:34:27.482Z,95.62
2023-03-16T10:35:27.765Z,95.62
2023-03-16T10:36:27.478Z,95.62
2023-03-16T10:37:27.403Z,101.25
2023-03-16T10:38:27.399Z,106.88
2023-03-16T10:39:28.612Z,106.88
2023-03-16T10:40:27.736Z,112.50
2023-03-16T10:41:27.382Z,112.50
2023-03-16T10:42:27.366Z,112.50
2023-03-16T10:43:27.332Z,106.88
2023-03-16T10:44:27.396Z,95.62
2023-03-16T10:45:27.766Z,90.00
2023-03-16T10:46:27.441Z,90.00
2023-03-16T10:47:27.280Z,95.62
2023-03-16T10:48:27.471Z,101.25
2023-03-16T10:49:27.301Z,112.50
2023-03-16T10:50:27.766Z,123.75
2023-03-16T10:51:28.180Z,129.38
2023-03-16T10:52:27.225Z,135.00
2023-03-16T10:53:27.214Z,140.62
2023-03-16T10:54:27.265Z,146.25
2023-03-16T10:55:27.408Z,151.88
2023-03-16T10:56:27.170Z,151.88
2023-03-16T10:57:27.149Z,157.50
2023-03-16T10:58:29.453Z,168.75
2023-03-16T10:59:27.121Z,174.38
2023-03-16T11:00:27.231Z,180.00
2023-03-16T11:01:27.868Z,185.62
2023-03-16T11:02:27.091Z,191.25
2023-03-16T11:03:27.160Z,196.88
2023-03-16T11:04:27.191Z,196.88
2023-03-16T11:05:28.189Z,191.25
2023-03-16T11:06:27.082Z,191.25
2023-03-16T11:07:27.035Z,180.00
2023-03-16T11:08:27.018Z,174.38
2023-03-16T11:09:27.003Z,168.75
2023-03-16T11:10:26.991Z,163.12
2023-03-16T11:11:26.976Z,163.12
2023-03-16T11:12:27.079Z,157.50
2023-03-16T11:13:26.950Z,151.88
2023-03-16T11:14:26.947Z,146.25
2023-03-16T11:15:26.921Z,146.25
2023-03-16T11:16:26.967Z,140.62
2023-03-16T11:17:26.970Z,140.62
2023-03-16T11:18:27.138Z,140.62
2023-03-16T11:19:26.881Z,135.00
2023-03-16T11:20:26.867Z,129.38
2023-03-16T11:21:26.853Z,123.75
2023-03-16T11:22:26.836Z,129.38
2023-03-16T11:23:26.841Z,140.62
2023-03-16T11:24:26.921Z,146.25
2023-03-16T11:25:27.014Z,151.88
2023-03-16T11:26:26.785Z,157.50
2023-03-16T11:27:26.767Z,157.50
2023-03-16T11:28:26.759Z,157.50
2023-03-16T11:29:26.739Z,151.88
2023-03-16T11:30:26.829Z,151.88
2023-03-16T11:31:26.797Z,157.50
2023-03-16T11:32:26.760Z,163.12
2023-03-16T11:33:26.690Z,163.12
2023-03-16T11:34:26.683Z,157.50
2023-03-16T11:35:27.016Z,146.25
2023-03-16T11:36:26.801Z,140.62
2023-03-16T11:37:26.631Z,135.00
2023-03-16T11:38:26.631Z,129.38
2023-03-16T11:39:26.614Z,129.38
2023-03-16T11:40:26.614Z,135.00
2023-03-16T11:41:26.584Z,146.25
2023-03-16T11:42:26.698Z,146.25
2023-03-16T11:43:27.515Z,140.62
2023-03-16T11:44:26.556Z,129.38
2023-03-16T11:45:26.534Z,129.38
2023-03-16T11:46:26.603Z,129.38
2023-03-16T11:47:26.521Z,135.00
2023-03-16T11:48:26.618Z,140.62
2023-03-16T11:49:26.501Z,151.88
2023-03-16T11:50:26.483Z,157.50
2023-03-16T11:51:26.459Z,163.12
2023-03-16T11:52:26.450Z,168.75
2023-03-16T11:53:26.428Z,163.12
2023-03-16T11:54:26.456Z,168.75
2023-03-16T11:55:26.664Z,174.38
2023-03-16T11:56:26.397Z,168.75
2023-03-16T11:57:26.375Z,157.50
2023-03-16T11:58:26.367Z,146.25
2023-03-16T11:59:26.361Z,140.62
2023-03-16T12:00:26.406Z,123.75
2023-03-16T12:01:26.361Z,112.50
2023-03-16T12:02:26.445Z,112.50
2023-03-16T12:03:26.325Z,112.50
2023-03-16T12:04:26.313Z,112.50
2023-03-16T12:05:26.344Z,123.75
2023-03-16T12:06:26.304Z,140.62
2023-03-16T12:07:26.245Z,157.50
2023-03-16T12:08:26.239Z,157.50
2023-03-16T12:09:27.055Z,157.50
2023-03-16T12:10:26.735Z,163.12
2023-03-16T12:11:26.186Z,180.00
2023-03-16T12:12:26.198Z,191.25
2023-03-16T12:13:26.165Z,191.25
2023-03-16T12:14:26.381Z,185.62
2023-03-16T12:15:27.591Z,191.25
2023-03-16T12:16:31.024Z,196.88
2023-03-16T12:17:27.161Z,196.88
2023-03-16T12:18:26.758Z,202.50
2023-03-16T12:19:26.082Z,202.50
2023-03-16T12:20:26.079Z,196.88
2023-03-16T12:21:26.059Z,185.62
2023-03-16T12:22:26.050Z,180.00
2023-03-16T12:23:27.853Z,174.38
2023-03-16T12:24:26.020Z,163.12
2023-03-16T12:25:26.012Z,157.50
2023-03-16T12:26:26.941Z,151.88
2023-03-16T12:27:25.983Z,151.88
2023-03-16T12:28:25.976Z,151.88
2023-03-16T12:29:25.970Z,146.25
2023-03-16T12:30:25.941Z,140.62
2023-03-16T12:31:25.944Z,135.00
2023-03-16T12:32:26.000Z,140.62
2023-03-16T12:33:25.906Z,140.62
2023-03-16T12:34:25.950Z,140.62
2023-03-16T12:35:25.952Z,146.25
2023-03-16T12:36:25.874Z,151.88
2023-03-16T12:37:25.890Z,157.50
2023-03-16T12:38:25.844Z,163.12
2023-03-16T12:39:26.017Z,174.38
2023-03-16T12:40:25.823Z,180.00
2023-03-16T12:41:25.831Z,174.38
2023-03-16T12:42:25.788Z,174.38
2023-03-16T12:43:25.768Z,168.75
2023-03-16T12:44:25.857Z,163.12
2023-03-16T12:45:25.738Z,157.50
2023-03-16T12:46:25.758Z,157.50
2023-03-16T12:47:26.010Z,146.25
2023-03-16T12:48:25.711Z,135.00
2023-03-16T12:49:25.702Z,129.38
2023-03-16T12:50:25.779Z,129.38
2023-03-16T12:51:26.622Z,129.38
2023-03-16T12:52:25.670Z,129.38
2023-03-16T12:53:26.617Z,129.38
2023-03-16T12:54:25.620Z,140.62
2023-03-16T12:55:25.617Z,146.25
2023-03-16T12:56:25.623Z,146.25